createdAt,value
2023-07-29T00:00:21.267Z,74.01
2023-07-29T00:01:21.325Z,74.01
2023-07-29T00:02:21.421Z,74.11
2023-07-29T00:03:21.538Z,74.11
2023-07-29T00:04:21.615Z,74.21
2023-07-29T00:05:21.637Z,74.21
2023-07-29T00:06:21.740Z,74.11
2023-07-29T00:07:21.828Z,74.11
2023-07-29T00:08:21.886Z,74.21
2023-07-29T00:09:22.092Z,74.21
2023-07-29T00:10:22.053Z,74.31
2023-07-29T00:11:22.150Z,74.21
2023-07-29T00:12:22.198Z,74.21
2023-07-29T00:13:22.639Z,74.11
2023-07-29T00:14:22.444Z,74.21
2023-07-29T00:15:22.452Z,74.21
2023-07-29T00:16:22.548Z,74.31
2023-07-29T00:17:22.581Z,74.31
2023-07-29T00:18:22.660Z,74.31
2023-07-29T00:19:22.777Z,74.21
2023-07-29T00:20:22.855Z,74.31
2023-07-29T00:21:22.958Z,74.31
2023-07-29T00:22:23.029Z,74.21
2023-07-29T00:23:23.077Z,74.21
2023-07-29T00:24:23.200Z,74.24
2023-07-29T00:25:23.269Z,74.24
2023-07-29T00:26:23.321Z,74.24
2023-07-29T00:27:23.419Z,74.24
2023-07-29T00:28:23.788Z,74.24
2023-07-29T00:29:23.613Z,74.24
2023-07-29T00:30:23.664Z,74.35
2023-07-29T00:31:23.774Z,74.35
2023-07-29T00:32:23.862Z,74.31
2023-07-29T00:33:23.938Z,74.31
2023-07-29T00:34:24.069Z,74.31
2023-07-29T00:35:24.123Z,74.31
2023-07-29T00:36:24.216Z,74.31
2023-07-29T00:37:24.317Z,74.21
2023-07-29T00:38:24.416Z,74.21
2023-07-29T00:39:24.500Z,74.21
2023-07-29T00:40:24.577Z,74.21
2023-07-29T00:41:24.614Z,74.21
2023-07-29T00:42:24.708Z,74.21
2023-07-29T00:43:24.792Z,74.21
2023-07-29T00:44:24.945Z,74.11
2023-07-29T00:45:24.941Z,74.11
2023-07-29T00:46:25.088Z,74.11
2023-07-29T00:47:25.156Z,74.21
2023-07-29T00:48:25.271Z,74.21
2023-07-29T00:49:25.309Z,74.21
2023-07-29T00:50:25.346Z,74.11
2023-07-29T00:51:25.436Z,74.11
2023-07-29T00:52:25.531Z,74.11
2023-07-29T00:53:25.595Z,74.01
2023-07-29T00:54:25.750Z,74.01
2023-07-29T00:55:25.782Z,74.01
2023-07-29T00:56:25.899Z,74.01
2023-07-29T00:57:25.939Z,74.01
2023-07-29T00:58:26.056Z,74.01
2023-07-29T00:59:26.142Z,74.01
2023-07-29T01:00:26.194Z,74.01
2023-07-29T01:01:26.343Z,74.01
2023-07-29T01:02:26.472Z,74.01
2023-07-29T01:03:26.499Z,74.01
2023-07-29T01:04:26.568Z,74.01
2023-07-29T01:05:26.625Z,74.01
2023-07-29T01:06:26.747Z,74.01
2023-07-29T01:07:26.776Z,74.01
2023-07-29T01:08:26.859Z,74.01
2023-07-29T01:09:26.972Z,74.11
2023-07-29T01:10:27.046Z,74.11
2023-07-29T01:11:27.096Z,74.21
2023-07-29T01:12:27.191Z,74.31
2023-07-29T01:13:27.289Z,74.31
2023-07-29T01:14:27.411Z,74.31
2023-07-29T01:15:27.466Z,74.31
2023-07-29T01:16:27.620Z,74.41
2023-07-29T01:17:27.627Z,74.44
2023-07-29T01:18:27.733Z,74.44
2023-07-29T01:19:27.847Z,74.44
2023-07-29T01:20:27.902Z,74.55
2023-07-29T01:21:27.970Z,74.55
2023-07-29T01:22:28.066Z,74.65
2023-07-29T01:23:28.144Z,74.65
2023-07-29T01:24:28.222Z,74.71
2023-07-29T01:25:28.292Z,74.71
2023-07-29T01:26:28.410Z,74.71
2023-07-29T01:27:28.453Z,74.71
2023-07-29T01:28:28.549Z,74.71
2023-07-29T01:29:28.599Z,74.71
2023-07-29T01:30:28.660Z,74.71
2023-07-29T01:31:28.773Z,74.71
2023-07-29T01:32:28.857Z,74.71
2023-07-29T01:33:28.875Z,74.71
2023-07-29T01:34:29.011Z,74.61
2023-07-29T01:35:29.072Z,74.61
2023-07-29T01:36:29.143Z,74.61
2023-07-29T01:37:29.218Z,74.61
2023-07-29T01:38:29.337Z,74.51
2023-07-29T01:39:29.376Z,74.51
2023-07-29T01:40:29.452Z,74.51
2023-07-29T01:41:29.570Z,74.51
2023-07-29T01:42:30.727Z,74.51
2023-07-29T01:43:29.691Z,74.51
2023-07-29T01:44:29.789Z,74.51
2023-07-29T01:45:29.834Z,74.61
2023-07-29T01:46:29.902Z,74.61
2023-07-29T01:47:29.976Z,74.51
2023-07-29T01:48:30.212Z,74.51
2023-07-29T01:49:30.149Z,74.51
2023-07-29T01:50:30.218Z,74.51
2023-07-29T01:51:30.277Z,74.51
2023-07-29T01:52:30.381Z,74.51
2023-07-29T01:53:30.537Z,74.51
2023-07-29T01:54:30.626Z,74.41
2023-07-29T01:55:30.726Z,74.41
2023-07-29T01:56:30.749Z,74.27
2023-07-29T01:57:30.823Z,74.27
2023-07-29T01:58:30.883Z,74.27
2023-07-29T01:59:31.032Z,74.27
2023-07-29T02:00:31.089Z,74.18
2023-07-29T02:01:31.183Z,74.18
2023-07-29T02:02:31.219Z,74.18
2023-07-29T02:03:31.285Z,74.07
2023-07-29T02:04:31.418Z,74.07
2023-07-29T02:05:31.465Z,73.97
2023-07-29T02:06:31.568Z,73.97
2023-07-29T02:07:31.620Z,73.97
2023-07-29T02:08:31.732Z,73.97
2023-07-29T02:09:31.805Z,73.97
2023-07-29T02:10:31.857Z,73.97
2023-07-29T02:11:31.927Z,73.97
2023-07-29T02:12:32.014Z,73.97
2023-07-29T02:13:32.066Z,73.97
2023-07-29T02:14:32.180Z,74.07
2023-07-29T02:15:32.228Z,74.07
2023-07-29T02:16:32.413Z,74.07
2023-07-29T02:17:32.497Z,73.97
2023-07-29T02:18:32.531Z,74.07
2023-07-29T02:19:32.602Z,74.07
2023-07-29T02:20:32.666Z,74.07
2023-07-29T02:21:32.802Z,74.07
2023-07-29T02:22:32.813Z,73.97
2023-07-29T02:23:32.898Z,73.97
2023-07-29T02:24:33.030Z,74.01
2023-07-29T02:25:33.067Z,73.97
2023-07-29T02:26:33.320Z,73.97
2023-07-29T02:27:33.229Z,73.97
2023-07-29T02:28:33.409Z,73.87
2023-07-29T02:29:33.423Z,73.87
2023-07-29T02:30:33.561Z,73.87
2023-07-29T02:31:33.585Z,73.77
2023-07-29T02:32:33.767Z,73.91
2023-07-29T02:33:33.828Z,73.91
2023-07-29T02:34:34.104Z,73.91
2023-07-29T02:35:33.901Z,73.91
2023-07-29T02:36:34.096Z,73.81
2023-07-29T02:37:34.083Z,73.81
2023-07-29T02:38:34.185Z,73.81
2023-07-29T02:39:34.289Z,73.81
2023-07-29T02:40:34.360Z,73.81
2023-07-29T02:41:34.482Z,73.81
2023-07-29T02:42:34.528Z,73.81
2023-07-29T02:43:34.589Z,73.77
2023-07-29T02:44:34.681Z,73.77
2023-07-29T02:45:34.711Z,73.77
2023-07-29T02:46:35.263Z,73.67
2023-07-29T02:47:34.919Z,73.67
2023-07-29T02:48:34.973Z,73.57
2023-07-29T02:49:35.101Z,73.47
2023-07-29T02:50:35.168Z,73.47
2023-07-29T02:51:35.225Z,73.47
2023-07-29T02:52:35.345Z,73.37
2023-07-29T02:53:35.418Z,73.27
2023-07-29T02:54:35.589Z,73.17
2023-07-29T02:55:35.599Z,73.07
2023-07-29T02:56:36.146Z,72.97
2023-07-29T02:57:35.768Z,72.97
2023-07-29T02:58:35.867Z,72.97
2023-07-29T02:59:35.960Z,72.97
2023-07-29T03:00:36.026Z,72.97
2023-07-29T03:01:36.104Z,72.87
2023-07-29T03:02:36.253Z,72.90
2023-07-29T03:03:36.324Z,72.97
2023-07-29T03:04:36.402Z,72.97
2023-07-29T03:05:36.462Z,72.97
2023-07-29T03:06:36.822Z,72.87
2023-07-29T03:07:36.636Z,72.87
2023-07-29T03:08:36.755Z,72.77
2023-07-29T03:09:36.851Z,72.77
2023-07-29T03:10:36.909Z,72.77
2023-07-29T03:11:37.064Z,72.67
2023-07-29T03:12:37.143Z,72.67
2023-07-29T03:13:37.252Z,72.77
2023-07-29T03:14:37.267Z,72.67
2023-07-29T03:15:37.391Z,72.67
2023-07-29T03:16:37.633Z,72.67
2023-07-29T03:17:37.588Z,72.67
2023-07-29T03:18:37.654Z,72.71
2023-07-29T03:19:37.743Z,72.67
2023-07-29T03:20:37.792Z,72.67
2023-07-29T03:21:37.856Z,72.67
2023-07-29T03:22:37.971Z,72.67
2023-07-29T03:23:38.104Z,72.67
2023-07-29T03:24:38.161Z,72.80
2023-07-29T03:25:38.264Z,72.80
2023-07-29T03:26:38.664Z,72.77
2023-07-29T03:27:38.400Z,72.67
2023-07-29T03:28:38.413Z,72.71
2023-07-29T03:29:38.509Z,72.71
2023-07-29T03:30:38.628Z,72.71
2023-07-29T03:31:38.721Z,72.80
2023-07-29T03:32:38.793Z,72.80
2023-07-29T03:33:38.906Z,72.80
2023-07-29T03:34:38.958Z,72.80
2023-07-29T03:35:38.970Z,72.80
2023-07-29T03:36:39.216Z,72.71
2023-07-29T03:37:39.132Z,72.71
2023-07-29T03:38:39.197Z,72.80
2023-07-29T03:39:39.363Z,72.80
2023-07-29T03:40:39.449Z,72.80
2023-07-29T03:41:39.460Z,72.80
2023-07-29T03:42:39.565Z,72.90
2023-07-29T04:01:20.403Z,74.62
2023-07-29T04:16:02.020Z,75.46
2023-07-29T04:23:25.541Z,76.06
2023-07-29T04:24:12.234Z,76.16
2023-07-29T04:25:12.398Z,76.26
2023-07-29T04:26:12.762Z,76.26
2023-07-29T04:27:12.554Z,76.16
2023-07-29T04:28:12.666Z,76.06
2023-07-29T04:29:12.692Z,76.06
2023-07-29T04:30:12.987Z,76.03
2023-07-29T04:31:24.962Z,75.92
2023-07-29T04:36:05.638Z,76.36
2023-07-29T04:42:23.921Z,76.70
2023-07-29T04:46:54.790Z,76.90
2023-07-29T04:47:52.674Z,77.00
2023-07-29T05:00:19.101Z,77.61
2023-07-29T05:07:35.376Z,78.35
2023-07-29T05:21:51.406Z,79.39
2023-07-29T05:40:46.597Z,80.06
2023-07-29T05:41:45.198Z,80.06
2023-07-29T05:46:13.751Z,79.82
2023-07-29T05:46:51.728Z,79.82
2023-07-29T05:50:19.860Z,79.92
2023-07-29T06:01:17.757Z,80.02
2023-07-29T06:06:49.811Z,80.12
2023-07-29T06:07:49.282Z,80.12
2023-07-29T06:08:48.287Z,80.22
2023-07-29T06:09:48.353Z,80.19
2023-07-29T06:38:53.686Z,81.63
2023-07-29T06:46:20.209Z,82.07
2023-07-29T06:47:20.269Z,82.04
2023-07-29T06:48:21.263Z,82.14
2023-07-29T06:49:20.219Z,82.24
2023-07-29T06:50:20.340Z,82.24
2023-07-29T06:51:20.460Z,82.10
2023-07-29T06:57:52.872Z,82.20
2023-07-29T06:58:55.521Z,82.30
2023-07-29T07:32:16.352Z,83.34
2023-07-29T07:33:17.028Z,83.25
2023-07-29T07:34:16.495Z,83.25
2023-07-29T07:35:16.540Z,83.11
2023-07-29T07:53:04.060Z,83.00
2023-07-29T07:54:05.758Z,83.11
2023-07-29T07:55:04.249Z,83.11
2023-07-29T07:56:04.425Z,83.06
2023-07-29T08:07:17.165Z,83.91
2023-07-29T08:11:27.413Z,84.07
2023-07-29T08:24:55.953Z,84.88
2023-07-29T08:34:19.754Z,84.74
2023-07-29T09:03:25.163Z,85.74
2023-07-29T09:04:26.108Z,85.74
2023-07-29T09:05:26.050Z,85.74
2023-07-29T09:06:32.256Z,85.74
2023-07-29T09:24:46.533Z,85.90
2023-07-29T09:25:46.769Z,85.80
2023-07-29T09:26:46.731Z,85.66
2023-07-29T09:27:46.785Z,85.75
2023-07-29T09:28:46.896Z,85.75
2023-07-29T09:29:46.954Z,85.52
2023-07-29T09:30:47.154Z,85.22
2023-07-29T09:31:47.135Z,85.02
2023-07-29T09:32:47.246Z,84.67
2023-07-29T09:33:47.280Z,84.57
2023-07-29T09:34:47.372Z,84.57
2023-07-29T09:35:47.390Z,84.57
2023-07-29T09:36:47.551Z,84.63
2023-07-29T09:37:47.627Z,84.63
2023-07-29T09:38:47.853Z,84.43
2023-07-29T09:39:47.789Z,84.43
2023-07-29T09:40:47.854Z,84.29
2023-07-29T09:41:49.369Z,83.99
2023-07-29T09:42:47.979Z,83.49
2023-07-29T09:43:48.119Z,82.79
2023-07-29T09:44:48.128Z,82.49
2023-07-29T09:45:48.237Z,82.05
2023-07-29T09:46:48.527Z,81.95
2023-07-29T09:47:48.414Z,81.65
2023-07-29T09:48:48.461Z,80.44
2023-07-29T09:49:48.574Z,79.71
2023-07-29T09:50:48.609Z,79.80
2023-07-29T09:51:48.719Z,79.50
2023-07-29T09:52:48.788Z,79.60
2023-07-29T09:53:48.882Z,79.71
2023-07-29T09:54:48.950Z,79.27
2023-07-29T09:55:49.048Z,78.97
2023-07-29T09:56:49.092Z,78.67
2023-07-29T09:57:49.192Z,78.86
2023-07-29T09:58:49.281Z,78.97
2023-07-29T09:59:49.492Z,79.06
2023-07-29T10:00:49.445Z,78.86
2023-07-29T10:01:49.574Z,78.97
2023-07-29T10:02:49.684Z,79.17
2023-07-29T10:03:49.781Z,78.53
2023-07-29T10:04:49.771Z,78.43
2023-07-29T10:05:49.813Z,78.43
2023-07-29T10:06:49.863Z,78.43
2023-07-29T10:07:49.955Z,78.63
2023-07-29T10:08:50.060Z,78.59
2023-07-29T10:09:50.220Z,78.49
2023-07-29T10:10:50.242Z,77.89
2023-07-29T10:11:50.342Z,77.09
2023-07-29T10:12:50.404Z,76.99
2023-07-29T10:14:04.337Z,77.06
2023-07-29T10:14:50.573Z,76.26
2023-07-29T10:15:50.655Z,76.06
2023-07-29T10:16:50.693Z,76.35
2023-07-29T10:17:50.851Z,76.06
2023-07-29T10:18:50.878Z,75.96
2023-07-29T10:19:51.032Z,76.15
2023-07-29T10:20:51.065Z,75.52
2023-07-29T10:21:51.162Z,75.12
2023-07-29T10:22:51.230Z,75.32
2023-07-29T10:23:51.275Z,75.72
2023-07-29T10:24:51.377Z,75.02
2023-07-29T10:25:51.671Z,75.22
2023-07-29T10:26:51.571Z,75.42
2023-07-29T10:27:51.691Z,75.12
2023-07-29T10:28:51.814Z,75.22
2023-07-29T10:29:51.968Z,74.92
2023-07-29T10:30:51.916Z,74.72
2023-07-29T10:31:52.060Z,74.62
2023-07-29T10:32:52.141Z,74.32
2023-07-29T10:34:56.393Z,74.38
2023-07-29T10:35:57.095Z,74.29
2023-07-29T10:36:57.322Z,74.38
2023-07-29T10:37:57.297Z,74.49
2023-07-29T10:38:58.411Z,74.38
2023-07-29T10:39:57.550Z,73.99
2023-07-29T10:42:53.252Z,73.92
2023-07-29T10:43:53.970Z,74.02
2023-07-29T10:44:55.378Z,73.72
2023-07-29T10:46:06.619Z,72.52
2023-07-29T10:46:54.296Z,72.13
2023-07-29T10:47:54.397Z,72.29
2023-07-29T10:48:54.397Z,72.29
2023-07-29T10:49:54.455Z,72.39
2023-07-29T10:50:54.631Z,72.29
2023-07-29T10:51:54.813Z,72.49
2023-07-29T10:52:54.756Z,71.15
2023-07-29T10:53:54.840Z,71.26
2023-07-29T10:58:02.654Z,71.75
2023-07-29T10:59:00.981Z,71.75
2023-07-29T11:02:12.803Z,72.45
2023-07-29T11:03:11.971Z,72.45
2023-07-29T11:09:04.068Z,71.36
2023-07-29T11:10:05.576Z,71.66
2023-07-29T11:11:04.445Z,71.36
2023-07-29T11:12:04.613Z,71.15
2023-07-29T11:21:21.871Z,71.95
2023-07-29T11:33:47.428Z,72.85
2023-07-29T11:34:48.470Z,72.85
2023-07-29T11:43:08.353Z,70.79
2023-07-29T11:44:09.447Z,70.89
2023-07-29T11:45:09.651Z,71.59
2023-07-29T11:52:36.652Z,71.35
2023-07-29T11:53:38.434Z,70.95
2023-07-29T11:54:37.595Z,70.45
2023-07-29T11:55:38.462Z,70.06
2023-07-29T11:56:38.018Z,70.03
2023-07-29T11:57:37.807Z,70.12
2023-07-29T11:58:37.826Z,69.73
2023-07-29T11:59:37.885Z,68.93
2023-07-29T12:00:38.025Z,68.70
2023-07-29T12:01:38.037Z,68.50
2023-07-29T12:02:38.228Z,68.50
2023-07-29T12:03:38.856Z,68.40
2023-07-29T12:04:39.050Z,68.07
2023-07-29T12:05:38.383Z,67.86
2023-07-29T12:06:38.792Z,67.97
2023-07-29T12:07:38.542Z,67.97
2023-07-29T12:08:38.665Z,67.86
2023-07-29T12:09:38.695Z,67.07
2023-07-29T12:10:38.798Z,66.74
2023-07-29T12:11:39.504Z,66.94
2023-07-29T12:12:49.184Z,67.33
2023-07-29T12:13:39.226Z,67.33
2023-07-29T12:14:39.177Z,67.21
2023-07-29T12:15:39.177Z,66.81
2023-07-29T12:16:39.765Z,66.61
2023-07-29T12:17:39.603Z,66.71
2023-07-29T12:18:40.167Z,66.81
2023-07-29T12:19:40.504Z,66.91
2023-07-29T12:20:39.597Z,66.41
2023-07-29T12:21:39.774Z,66.11
2023-07-29T12:22:39.775Z,66.01
2023-07-29T12:23:40.001Z,66.11
2023-07-29T12:24:41.098Z,66.31
2023-07-29T12:25:42.398Z,66.41
2023-07-29T12:26:40.130Z,66.61
2023-07-29T12:27:40.157Z,66.38
2023-07-29T12:28:43.718Z,66.31
2023-07-29T12:29:40.343Z,65.91
2023-07-29T12:30:46.989Z,65.81
2023-07-29T12:31:40.491Z,66.01
2023-07-29T12:32:40.674Z,65.81
2023-07-29T12:33:40.706Z,65.81
2023-07-29T12:34:40.852Z,65.72
2023-07-29T12:35:45.208Z,65.81
2023-07-29T12:36:47.526Z,65.91
2023-07-29T12:37:42.212Z,65.61
2023-07-29T12:38:41.103Z,65.72
2023-07-29T12:39:41.241Z,66.01
2023-07-29T12:41:06.159Z,65.91
2023-07-29T12:41:41.395Z,65.81
2023-07-29T12:42:42.811Z,65.72
2023-07-29T12:43:41.501Z,65.91
2023-07-29T12:44:41.766Z,66.01
2023-07-29T12:45:51.235Z,66.11
2023-07-29T12:46:41.818Z,66.11
2023-07-29T12:47:49.807Z,66.31
2023-07-29T12:48:42.110Z,66.31
2023-07-29T12:49:42.168Z,66.21
2023-07-29T12:50:41.802Z,66.31
2023-07-29T12:51:42.213Z,66.41
2023-07-29T12:53:54.046Z,66.14
2023-07-29T12:55:15.285Z,65.94
2023-07-29T12:55:55.279Z,66.05
2023-07-29T12:56:58.315Z,66.24
2023-07-29T12:57:55.296Z,66.24
2023-07-29T12:58:55.350Z,66.44
2023-07-29T12:59:55.495Z,66.64
2023-07-29T13:00:55.683Z,66.84
2023-07-29T13:01:55.674Z,67.04
2023-07-29T13:02:59.062Z,66.64
2023-07-29T13:03:56.103Z,66.57
2023-07-29T13:04:55.953Z,66.77
2023-07-29T13:05:56.050Z,66.77
2023-07-29T13:06:56.039Z,66.38
2023-07-29T13:07:56.167Z,66.38
2023-07-29T13:08:57.396Z,66.47
2023-07-29T13:09:56.407Z,66.47
2023-07-29T13:10:56.463Z,66.57
2023-07-29T13:11:56.496Z,66.67
2023-07-29T13:12:56.521Z,66.87
2023-07-29T13:13:56.599Z,67.07
2023-07-29T13:14:56.691Z,67.17
2023-07-29T13:15:56.763Z,66.97
2023-07-29T13:16:56.850Z,67.07
2023-07-29T13:17:56.913Z,67.27
2023-07-29T13:18:57.020Z,67.57
2023-07-29T13:19:57.105Z,67.86
2023-07-29T13:20:57.136Z,67.90
2023-07-29T13:21:57.251Z,68.00
2023-07-29T13:22:57.290Z,68.10
2023-07-29T13:23:57.422Z,68.20
2023-07-29T13:24:57.553Z,68.00
2023-07-29T13:25:57.583Z,68.00
2023-07-29T13:26:57.702Z,68.20
2023-07-29T13:27:57.806Z,68.10
2023-07-29T13:28:57.814Z,68.00
2023-07-29T13:29:57.974Z,68.13
2023-07-29T13:30:58.021Z,68.23
2023-07-29T13:31:58.130Z,68.33
2023-07-29T13:32:58.252Z,68.53
2023-07-29T13:33:58.302Z,68.53
2023-07-29T13:34:58.398Z,68.53
2023-07-29T13:35:58.471Z,68.43
2023-07-29T13:36:58.600Z,68.43
2023-07-29T13:37:58.636Z,68.63
2023-07-29T13:38:58.720Z,68.73
2023-07-29T13:39:58.897Z,68.53
2023-07-29T13:40:58.891Z,68.33
2023-07-29T13:41:58.967Z,68.33
2023-07-29T13:42:59.081Z,68.33
2023-07-29T13:43:59.116Z,68.37
2023-07-29T13:44:59.330Z,68.46
2023-07-29T13:45:59.370Z,68.46
2023-07-29T13:46:59.418Z,68.46
2023-07-29T13:47:59.540Z,68.56
2023-07-29T13:48:59.548Z,68.76
2023-07-29T13:49:59.697Z,68.76
2023-07-29T13:50:59.715Z,68.76
2023-07-29T13:51:59.803Z,68.76
2023-07-29T13:52:59.878Z,68.76
2023-07-29T13:53:59.939Z,68.86
2023-07-29T13:55:00.138Z,69.09
2023-07-29T13:56:00.277Z,69.20
2023-07-29T13:57:00.250Z,69.20
2023-07-29T13:58:00.373Z,68.99
2023-07-29T13:59:00.490Z,68.90
2023-07-29T14:00:00.547Z,68.90
2023-07-29T14:01:00.720Z,68.99
2023-07-29T14:02:00.678Z,69.09
2023-07-29T14:03:00.823Z,69.09
2023-07-29T14:04:00.918Z,69.09
2023-07-29T14:05:01.144Z,69.13
2023-07-29T14:06:01.072Z,69.23
2023-07-29T14:07:01.170Z,69.32
2023-07-29T14:08:01.203Z,69.13
2023-07-29T14:09:01.274Z,69.02
2023-07-29T14:10:02.407Z,69.02
2023-07-29T14:11:01.416Z,69.02
2023-07-29T14:12:01.496Z,68.83
2023-07-29T14:13:01.602Z,68.86
2023-07-29T14:14:01.625Z,68.86
2023-07-29T14:15:01.781Z,68.86
2023-07-29T14:16:01.887Z,68.66
2023-07-29T14:17:01.932Z,68.49
2023-07-29T14:18:01.966Z,68.40
2023-07-29T14:19:02.052Z,68.49
2023-07-29T14:20:02.264Z,68.40
2023-07-29T14:21:02.261Z,68.29
2023-07-29T14:22:02.330Z,68.19
2023-07-29T14:23:02.460Z,68.23
2023-07-29T14:24:02.631Z,68.13
2023-07-29T14:25:02.627Z,68.23
2023-07-29T14:26:02.650Z,68.13
2023-07-29T14:27:02.784Z,67.53
2023-07-29T14:28:02.924Z,67.43
2023-07-29T14:29:02.958Z,67.56
2023-07-29T14:30:03.151Z,67.76
2023-07-29T14:31:03.186Z,67.96
2023-07-29T14:32:03.223Z,68.06
2023-07-29T14:33:03.291Z,68.06
2023-07-29T14:34:03.320Z,68.26
2023-07-29T14:35:03.411Z,68.26
2023-07-29T14:36:03.472Z,68.36
2023-07-29T14:37:03.634Z,68.46
2023-07-29T14:38:03.671Z,68.59
2023-07-29T14:39:03.720Z,68.79
2023-07-29T14:40:03.838Z,68.89
2023-07-29T14:41:03.935Z,68.89
2023-07-29T14:42:04.005Z,68.99
2023-07-29T14:43:04.084Z,68.99
2023-07-29T14:44:04.153Z,69.09
2023-07-29T14:45:04.246Z,69.19
2023-07-29T14:46:04.338Z,69.09
2023-07-29T14:47:04.450Z,69.23
2023-07-29T14:48:05.454Z,69.32
2023-07-29T14:49:04.604Z,69.23
2023-07-29T14:50:04.716Z,69.32
2023-07-29T14:51:04.800Z,69.12
2023-07-29T14:52:04.856Z,68.93
2023-07-29T14:53:04.945Z,69.02
2023-07-29T14:54:04.988Z,69.12
2023-07-29T14:55:05.139Z,69.32
2023-07-29T14:56:05.259Z,69.43
2023-07-29T14:57:05.262Z,69.62
2023-07-29T14:58:05.362Z,69.86
2023-07-29T14:59:05.418Z,70.16
2023-07-29T15:00:05.527Z,70.36
2023-07-29T15:01:05.584Z,70.46
2023-07-29T15:02:05.722Z,70.66
2023-07-29T15:03:05.818Z,70.76
2023-07-29T15:04:05.847Z,70.86
2023-07-29T15:05:05.948Z,70.96
2023-07-29T15:06:06.010Z,71.06
2023-07-29T15:07:06.056Z,71.26
2023-07-29T15:08:06.163Z,71.36
2023-07-29T15:09:06.224Z,71.46
2023-07-29T15:10:06.338Z,71.56
2023-07-29T15:11:06.409Z,71.56
2023-07-29T15:12:06.523Z,71.66
2023-07-29T15:13:06.559Z,71.76
2023-07-29T15:14:06.667Z,71.86
2023-07-29T15:15:06.772Z,72.06
2023-07-29T15:16:06.872Z,72.06
2023-07-29T15:17:07.001Z,72.16
2023-07-29T15:18:07.035Z,72.26
2023-07-29T15:19:07.087Z,72.36
2023-07-29T15:20:07.160Z,72.46
2023-07-29T15:21:07.223Z,72.56
2023-07-29T15:22:07.293Z,72.60
2023-07-29T15:23:07.439Z,72.66
2023-07-29T15:24:07.481Z,72.69
2023-07-29T15:25:07.587Z,72.69
2023-07-29T15:26:07.670Z,72.80
2023-07-29T16:33:09.308Z,79.37
2023-07-29T16:56:08.551Z,79.37
2023-07-29T17:24:34.152Z,79.71
2023-07-29T17:25:22.542Z,79.61
2023-07-29T17:26:22.492Z,79.57
2023-07-29T17:32:45.632Z,79.27
2023-07-29T20:46:35.456Z,80.45
2023-07-29T20:47:36.051Z,80.45
2023-07-29T21:44:28.731Z,80.39
2023-07-29T22:06:34.944Z,80.49
2023-07-29T22:20:09.527Z,80.05
2023-07-29T22:22:41.089Z,80.05
2023-07-29T22:23:54.101Z,79.94
2023-07-29T22:24:52.821Z,79.94
2023-07-29T22:50:25.165Z,79.94
2023-07-29T22:51:37.063Z,79.85
2023-07-29T23:40:21.917Z,79.88
